Waltham Cross, United Kingdom
Current Conditions -  °F | °C
As of 2:20 PM on Wednesday 22 Oct 2014 (Local Time) from EGLC Reporting Station
Scattered Clouds Scattered Clouds  
Wind Chill: 57°   Ceiling: Unl
Heat Index: 57°   Visibility: 6mi
Dew Point: 43°   Wind: 14mph
Humidity: 59%   Direction: 290°WNW
Pressure: 30.27"   Gusts: NA
Location:  51.7°N, 0.05°W
Report Text: EGLC 221320Z 29012KT 9999 SCT035 14/06 Q1025
Loading
Personal Weather Stations






























Interactive Weather Map
Tropical Storm Tracking
New forecast layout! Learn more

10-Day Weather Forecast

Advertisements
Track Severe Weather on mobile